Time;durP1;ratioP1;P1;durP2;ratioP2;P2;SDS_P1;SDS_P2;PMS_P1;PMS_P2;Temp;Humidity;BMP_temperature;BMP_pressure;BME280_temperature;BME280_humidity;BME280_pressure;Samples;Min_cycle;Max_cycle;Signal;HPM_P1;HPM_P2
2022/07/16 00:03:53;;;;;;;10.07;3.70;;;;;;;;;;6206001;23;20689;-91
2022/07/16 00:07:00;;;;;;;5.00;3.08;;;;;;;;;;6207667;23;20247;-91
2022/07/16 00:10:05;;;;;;;8.90;3.70;;;;;;;;;;6207540;23;20238;-89
2022/07/16 00:13:11;;;;;;;9.05;3.80;;;;;;;;;;6208016;23;20159;-87
2022/07/16 00:16:16;;;;;;;7.22;3.40;;;;;;;;;;6207645;23;20170;-89
2022/07/16 00:19:23;;;;;;;6.07;3.40;;;;;;;;;;6208939;23;20242;-88
2022/07/16 00:22:30;;;;;;;7.85;3.30;;;;;;;;;;6210815;23;20195;-88
2022/07/16 00:25:35;;;;;;;6.53;3.65;;;;;;;;;;6211527;23;20186;-89
2022/07/16 00:28:40;;;;;;;9.23;3.95;;;;;;;;;;6211750;23;20626;-90
2022/07/16 00:31:45;;;;;;;9.60;4.47;;;;;;;;;;6208904;23;20175;-87
2022/07/16 00:34:50;;;;;;;6.40;4.00;;;;;;;;;;6208519;23;20198;-90
2022/07/16 00:37:57;;;;;;;7.07;4.28;;;;;;;;;;6208986;23;20707;-88
2022/07/16 00:41:04;;;;;;;14.50;4.03;;;;;;;;;;6207678;23;20175;-91
2022/07/16 00:44:11;;;;;;;6.18;3.83;;;;;;;;;;6207783;23;20179;-89
2022/07/16 00:47:16;;;;;;;6.38;3.22;;;;;;;;;;6207465;23;20175;-88
2022/07/16 00:50:21;;;;;;;6.38;3.42;;;;;;;;;;6206606;23;20216;-90
2022/07/16 00:53:28;;;;;;;9.23;3.92;;;;;;;;;;6205711;23;20175;-89
2022/07/16 00:56:33;;;;;;;12.57;4.30;;;;;;;;;;6208537;23;20198;-89
2022/07/16 00:59:37;;;;;;;9.57;3.90;;;;;;;;;;6206587;23;20175;-89
2022/07/16 01:02:43;;;;;;;7.13;3.95;;;;;;;;;;6206189;23;20206;-91
2022/07/16 01:05:48;;;;;;;9.10;4.18;;;;;;;;;;6208324;23;20850;-89
2022/07/16 01:08:54;;;;;;;8.45;4.35;;;;;;;;;;6207473;23;20183;-91
2022/07/16 01:11:59;;;;;;;7.40;4.13;;;;;;;;;;6208103;23;20159;-90
2022/07/16 01:15:05;;;;;;;9.75;3.97;;;;;;;;;;6208723;23;20171;-91
2022/07/16 01:18:10;;;;;;;7.75;4.25;;;;;;;;;;6206280;23;20170;-87
2022/07/16 01:21:16;;;;;;;8.13;4.22;;;;;;;;;;6206466;23;20162;-89
2022/07/16 01:24:22;;;;;;;7.80;4.75;;;;;;;;;;6207334;23;20214;-89
2022/07/16 01:27:27;;;;;;;8.93;4.28;;;;;;;;;;6208876;23;20698;-89
2022/07/16 01:30:33;;;;;;;10.23;4.22;;;;;;;;;;6208733;23;20473;-88
2022/07/16 01:33:40;;;;;;;8.18;3.90;;;;;;;;;;6224751;23;20167;-88
2022/07/16 01:36:53;;;;;;;7.10;3.28;;;;;;;;;;6206756;23;20230;-89
2022/07/16 01:39:59;;;;;;;11.07;4.80;;;;;;;;;;6208603;23;20234;-89
2022/07/16 01:43:04;;;;;;;8.57;3.70;;;;;;;;;;6207603;23;20199;-89
2022/07/16 01:46:10;;;;;;;7.78;4.50;;;;;;;;;;6208455;23;20170;-88
2022/07/16 01:49:15;;;;;;;6.47;3.92;;;;;;;;;;6208185;23;20179;-90
2022/07/16 01:52:22;;;;;;;8.93;4.07;;;;;;;;;;6208651;23;20156;-89
2022/07/16 01:55:28;;;;;;;8.90;3.95;;;;;;;;;;6207693;23;20245;-89
2022/07/16 01:58:33;;;;;;;8.23;3.70;;;;;;;;;;6205444;23;20473;-90
2022/07/16 02:01:38;;;;;;;8.05;3.95;;;;;;;;;;6207019;23;20194;-90
2022/07/16 02:04:44;;;;;;;9.60;4.13;;;;;;;;;;6207360;23;20294;-88
2022/07/16 02:07:49;;;;;;;8.32;4.05;;;;;;;;;;6205251;23;20228;-89
2022/07/16 02:10:56;;;;;;;7.88;3.72;;;;;;;;;;6207062;23;20613;-89
2022/07/16 02:14:01;;;;;;;10.52;4.25;;;;;;;;;;6205628;23;20175;-90
2022/07/16 02:17:06;;;;;;;7.43;4.13;;;;;;;;;;6207048;23;20170;-89
2022/07/16 02:20:12;;;;;;;8.18;4.40;;;;;;;;;;6208985;23;20186;-89
2022/07/16 02:23:18;;;;;;;7.40;3.92;;;;;;;;;;6207827;23;20207;-88
2022/07/16 02:26:24;;;;;;;7.22;3.85;;;;;;;;;;6206829;23;20175;-89
2022/07/16 02:29:29;;;;;;;6.25;3.67;;;;;;;;;;6205486;23;20178;-89
2022/07/16 02:32:35;;;;;;;6.20;3.70;;;;;;;;;;6205096;23;20175;-88
2022/07/16 02:35:40;;;;;;;12.18;3.85;;;;;;;;;;6205330;23;20171;-87
2022/07/16 02:38:46;;;;;;;6.07;3.40;;;;;;;;;;6206002;23;20154;-88
2022/07/16 02:41:53;;;;;;;6.93;3.55;;;;;;;;;;6204353;23;20163;-88
2022/07/16 02:44:58;;;;;;;8.48;4.20;;;;;;;;;;6204891;23;20220;-89
2022/07/16 02:48:03;;;;;;;11.23;4.03;;;;;;;;;;6203104;23;20175;-88
2022/07/16 02:51:07;;;;;;;10.85;4.28;;;;;;;;;;6204575;23;20198;-88
2022/07/16 02:54:13;;;;;;;6.70;4.28;;;;;;;;;;6203123;23;20516;-92
2022/07/16 02:57:19;;;;;;;9.05;4.45;;;;;;;;;;6204441;23;20195;-87
2022/07/16 03:00:25;;;;;;;6.50;4.03;;;;;;;;;;6223672;23;20274;-87
2022/07/16 03:03:30;;;;;;;6.72;4.15;;;;;;;;;;6204821;23;20265;-88
2022/07/16 03:06:36;;;;;;;9.52;4.60;;;;;;;;;;6204342;23;20267;-88
2022/07/16 03:09:41;;;;;;;8.25;4.15;;;;;;;;;;6205500;23;20284;-88
2022/07/16 03:12:48;;;;;;;9.68;4.18;;;;;;;;;;6203602;23;20603;-87
2022/07/16 03:15:53;;;;;;;10.27;4.55;;;;;;;;;;6205649;23;20187;-89
2022/07/16 03:18:59;;;;;;;5.57;3.72;;;;;;;;;;6205151;23;20178;-88
2022/07/16 03:22:04;;;;;;;10.43;4.18;;;;;;;;;;6203925;23;20187;-89
2022/07/16 03:25:09;;;;;;;10.70;4.55;;;;;;;;;;6222276;23;20221;-89
2022/07/16 03:28:15;;;;;;;9.25;4.20;;;;;;;;;;6204806;23;20187;-89
2022/07/16 03:31:21;;;;;;;7.95;4.22;;;;;;;;;;6205665;23;20174;-90
2022/07/16 03:34:26;;;;;;;6.53;3.60;;;;;;;;;;6205918;23;20171;-87
2022/07/16 03:37:31;;;;;;;7.78;4.20;;;;;;;;;;6204750;23;20171;-90
2022/07/16 03:40:36;;;;;;;7.43;4.15;;;;;;;;;;6206691;23;20243;-88
2022/07/16 03:43:42;;;;;;;9.30;4.10;;;;;;;;;;6204653;23;20194;-88
2022/07/16 03:46:47;;;;;;;7.57;4.32;;;;;;;;;;6204370;23;20199;-89
2022/07/16 03:49:52;;;;;;;10.27;4.20;;;;;;;;;;6205305;23;20183;-87
2022/07/16 03:52:57;;;;;;;8.95;4.30;;;;;;;;;;6205560;23;20170;-87
2022/07/16 03:56:03;;;;;;;7.75;3.85;;;;;;;;;;6205888;23;20335;-88
2022/07/16 03:59:10;;;;;;;8.25;4.55;;;;;;;;;;6225631;23;20172;-87
2022/07/16 04:02:15;;;;;;;9.50;4.18;;;;;;;;;;6205246;23;20198;-88
2022/07/16 04:05:21;;;;;;;9.20;4.28;;;;;;;;;;6209537;23;20155;-90
2022/07/16 04:08:42;;;;;;;8.07;3.78;;;;;;;;;;6208876;23;20214;-88
2022/07/16 04:11:47;;;;;;;8.30;4.07;;;;;;;;;;6209892;23;20183;-88
2022/07/16 04:14:54;;;;;;;8.07;3.80;;;;;;;;;;6209682;23;20171;-89
2022/07/16 04:17:59;;;;;;;6.03;3.63;;;;;;;;;;6206969;23;20171;-87
2022/07/16 04:21:05;;;;;;;8.93;3.60;;;;;;;;;;6208489;23;20239;-88
2022/07/16 04:24:10;;;;;;;7.32;3.55;;;;;;;;;;6207958;23;20198;-88
2022/07/16 04:27:15;;;;;;;6.88;3.40;;;;;;;;;;6208610;23;20174;-88
2022/07/16 04:30:22;;;;;;;9.95;3.67;;;;;;;;;;6210753;23;20171;-89
2022/07/16 04:33:27;;;;;;;4.78;3.17;;;;;;;;;;6208668;23;20166;-87
2022/07/16 04:36:32;;;;;;;9.25;3.85;;;;;;;;;;6208426;23;20565;-88
2022/07/16 04:39:37;;;;;;;5.80;3.70;;;;;;;;;;6210164;23;20159;-89
2022/07/16 04:42:43;;;;;;;7.78;3.45;;;;;;;;;;6208675;23;20166;-91
2022/07/16 04:45:50;;;;;;;7.15;3.50;;;;;;;;;;6208614;23;20171;-90
2022/07/16 04:48:55;;;;;;;6.55;3.53;;;;;;;;;;6208973;23;20202;-89
2022/07/16 04:52:00;;;;;;;8.23;3.97;;;;;;;;;;6208725;23;20625;-88
2022/07/16 04:55:06;;;;;;;6.05;3.30;;;;;;;;;;6207054;23;20171;-89
2022/07/16 04:58:10;;;;;;;6.57;2.95;;;;;;;;;;6207970;23;20175;-87
2022/07/16 05:01:17;;;;;;;5.80;3.13;;;;;;;;;;6208501;23;20226;-89
2022/07/16 05:04:21;;;;;;;9.02;3.38;;;;;;;;;;6209220;23;20194;-88
2022/07/16 05:07:27;;;;;;;8.63;3.33;;;;;;;;;;6208545;23;20175;-88
2022/07/16 05:10:32;;;;;;;6.80;3.85;;;;;;;;;;6207697;23;20242;-89
2022/07/16 05:13:37;;;;;;;5.22;2.90;;;;;;;;;;6207701;23;20261;-90
2022/07/16 05:16:43;;;;;;;9.55;3.20;;;;;;;;;;6206991;23;20163;-89
2022/07/16 05:19:49;;;;;;;6.85;3.40;;;;;;;;;;6208257;23;20179;-89
2022/07/16 05:22:53;;;;;;;7.15;3.60;;;;;;;;;;6205594;23;20504;-89
2022/07/16 05:25:58;;;;;;;7.43;3.45;;;;;;;;;;6209277;23;20574;-90
2022/07/16 05:29:03;;;;;;;4.15;3.05;;;;;;;;;;6207704;23;20167;-88
2022/07/16 05:32:10;;;;;;;7.35;3.28;;;;;;;;;;6207248;23;20162;-89
2022/07/16 05:35:16;;;;;;;5.20;3.08;;;;;;;;;;6207566;23;20677;-91
2022/07/16 05:38:21;;;;;;;8.98;3.35;;;;;;;;;;6208400;23;20622;-91
2022/07/16 05:41:26;;;;;;;5.10;2.92;;;;;;;;;;6227910;23;20175;-92
2022/07/16 05:44:31;;;;;;;7.47;2.78;;;;;;;;;;6208538;23;20513;-88
2022/07/16 05:47:38;;;;;;;5.40;2.75;;;;;;;;;;6209358;23;20283;-90
2022/07/16 05:50:43;;;;;;;8.25;3.40;;;;;;;;;;6212424;23;20167;-88
2022/07/16 05:53:49;;;;;;;8.25;3.60;;;;;;;;;;6211649;23;20167;-92
2022/07/16 06:29:11;;;;;;;7.57;3.10;;;;;;;;;;6192768;23;20224;-91
2022/07/16 06:32:17;;;;;;;6.85;3.15;;;;;;;;;;6192397;23;20175;-88
2022/07/16 06:35:22;;;;;;;7.07;2.95;;;;;;;;;;6194114;23;20476;-90
2022/07/16 06:38:28;;;;;;;8.48;2.55;;;;;;;;;;6196700;23;20176;-88
2022/07/16 06:41:33;;;;;;;6.47;2.95;;;;;;;;;;6196734;23;20188;-89
2022/07/16 06:44:41;;;;;;;6.45;3.28;;;;;;;;;;6193366;23;20274;-90
2022/07/16 06:47:47;;;;;;;6.10;2.85;;;;;;;;;;6193402;23;20291;-90
2022/07/16 06:50:52;;;;;;;5.65;2.70;;;;;;;;;;6191428;23;20303;-89
2022/07/16 06:53:57;;;;;;;6.05;2.78;;;;;;;;;;6191955;23;20171;-89
2022/07/16 06:57:02;;;;;;;6.57;2.60;;;;;;;;;;6192494;23;20187;-91
2022/07/16 07:00:10;;;;;;;6.07;2.58;;;;;;;;;;6193639;23;20192;-89
2022/07/16 07:03:15;;;;;;;3.70;2.50;;;;;;;;;;6195956;23;20175;-88
2022/07/16 07:06:20;;;;;;;5.15;2.80;;;;;;;;;;6191772;23;20175;-91
2022/07/16 07:09:25;;;;;;;7.32;2.90;;;;;;;;;;6194504;23;20160;-89
2022/07/16 07:12:31;;;;;;;6.25;2.83;;;;;;;;;;6194321;23;20166;-90
2022/07/16 07:15:38;;;;;;;3.92;2.20;;;;;;;;;;6193086;23;20164;-87
2022/07/16 07:18:43;;;;;;;6.20;2.47;;;;;;;;;;6193777;23;20219;-89
2022/07/16 07:21:49;;;;;;;5.68;2.63;;;;;;;;;;6194755;23;20167;-89
2022/07/16 07:24:54;;;;;;;5.43;3.05;;;;;;;;;;6193715;23;20219;-90
2022/07/16 07:28:00;;;;;;;6.00;2.72;;;;;;;;;;6196120;23;20195;-88
2022/07/16 07:31:08;;;;;;;3.92;2.30;;;;;;;;;;6194130;23;20246;-90
2022/07/16 07:34:13;;;;;;;5.47;2.80;;;;;;;;;;6195369;23;20242;-89
2022/07/16 07:37:18;;;;;;;11.13;2.80;;;;;;;;;;6197848;23;20194;-90
2022/07/16 07:40:24;;;;;;;10.30;2.70;;;;;;;;;;6194637;23;20195;-88
2022/07/16 07:43:42;;;;;;;7.65;2.80;;;;;;;;;;6195019;23;20312;-90
2022/07/16 07:46:48;;;;;;;7.40;2.35;;;;;;;;;;6198436;23;20480;-89
2022/07/16 07:49:54;;;;;;;4.28;2.50;;;;;;;;;;6197229;23;20627;-88
2022/07/16 07:52:59;;;;;;;5.97;2.35;;;;;;;;;;6196158;23;20624;-89
2022/07/16 07:56:04;;;;;;;4.88;2.13;;;;;;;;;;6195703;23;20171;-89
2022/07/16 07:59:10;;;;;;;9.10;2.88;;;;;;;;;;6195599;23;20171;-89
2022/07/16 08:02:16;;;;;;;4.97;2.25;;;;;;;;;;6196157;23;20252;-89
2022/07/16 08:05:21;;;;;;;6.15;1.95;;;;;;;;;;6194978;23;20254;-90
2022/07/16 08:08:27;;;;;;;8.18;1.90;;;;;;;;;;6195919;23;20223;-90
2022/07/16 08:11:33;;;;;;;3.75;2.10;;;;;;;;;;6198430;23;20168;-87
2022/07/16 08:14:39;;;;;;;6.28;2.30;;;;;;;;;;6195353;23;20460;-88
2022/07/16 08:17:45;;;;;;;6.38;2.13;;;;;;;;;;6197858;23;20284;-90
2022/07/16 08:20:50;;;;;;;8.57;2.33;;;;;;;;;;6196835;23;20544;-91
2022/07/16 08:27:18;;;;;;;9.07;2.00;;;;;;;;;;6194845;23;20210;-90
2022/07/16 08:30:23;;;;;;;5.55;2.28;;;;;;;;;;6195291;23;20171;-91
2022/07/16 08:33:30;;;;;;;7.07;2.70;;;;;;;;;;6195668;23;20172;-91
2022/07/16 08:36:38;;;;;;;3.60;2.10;;;;;;;;;;6198723;23;20168;-89
2022/07/16 08:39:44;;;;;;;3.33;1.83;;;;;;;;;;6201276;23;20263;-88
2022/07/16 08:42:51;;;;;;;5.13;2.20;;;;;;;;;;6198556;23;20175;-91
2022/07/16 08:45:57;;;;;;;5.28;2.00;;;;;;;;;;6197359;23;20685;-88
2022/07/16 08:49:04;;;;;;;4.50;2.38;;;;;;;;;;6197607;23;20259;-91
2022/07/16 08:55:29;;;;;;;8.07;2.30;;;;;;;;;;6195915;23;20203;-91
2022/07/16 08:58:33;;;;;;;4.72;2.00;;;;;;;;;;6197601;23;20202;-92
2022/07/16 09:01:39;;;;;;;6.00;2.05;;;;;;;;;;6195857;23;20170;-90
2022/07/16 09:04:45;;;;;;;7.10;1.80;;;;;;;;;;6196030;23;20178;-88
2022/07/16 09:07:51;;;;;;;6.03;1.60;;;;;;;;;;6196860;23;20159;-89
2022/07/16 09:10:56;;;;;;;8.68;2.03;;;;;;;;;;6196566;23;20821;-89
2022/07/16 09:14:07;;;;;;;4.22;1.73;;;;;;;;;;6195361;23;20183;-91
2022/07/16 09:17:12;;;;;;;4.10;1.92;;;;;;;;;;6194912;23;20170;-90
2022/07/16 09:20:32;;;;;;;4.97;1.88;;;;;;;;;;6196502;23;20228;-91
2022/07/16 09:23:38;;;;;;;5.20;1.77;;;;;;;;;;6196399;23;20163;-88
2022/07/16 09:26:43;;;;;;;7.45;1.90;;;;;;;;;;6195626;23;20229;-90
2022/07/16 09:29:53;;;;;;;5.93;1.75;;;;;;;;;;6215984;23;20223;-92
2022/07/16 09:33:12;;;;;;;4.38;2.00;;;;;;;;;;6197509;23;20175;-89
2022/07/16 09:36:18;;;;;;;3.83;1.95;;;;;;;;;;6196639;23;20187;-90
2022/07/16 09:39:24;;;;;;;5.70;2.63;;;;;;;;;;6181971;23;20171;-90
2022/07/16 09:42:39;;;;;;;7.82;2.50;;;;;;;;;;6197337;23;20166;-90
2022/07/16 09:45:45;;;;;;;5.15;1.70;;;;;;;;;;6197405;23;20207;-91
2022/07/16 09:48:50;;;;;;;4.22;1.77;;;;;;;;;;6196861;23;20159;-91
2022/07/16 09:51:56;;;;;;;5.18;1.58;;;;;;;;;;6196156;23;20150;-91
2022/07/16 09:55:02;;;;;;;6.03;1.50;;;;;;;;;;6197181;23;20211;-90
2022/07/16 09:58:07;;;;;;;8.48;1.90;;;;;;;;;;6198553;23;20171;-91
2022/07/16 10:01:13;;;;;;;11.88;1.95;;;;;;;;;;6196675;23;20167;-90
2022/07/16 10:04:23;;;;;;;5.47;2.30;;;;;;;;;;6197675;23;20615;-91
2022/07/16 10:07:30;;;;;;;3.38;1.63;;;;;;;;;;6197710;23;20163;-91
2022/07/16 10:10:36;;;;;;;5.63;1.90;;;;;;;;;;6202099;23;20680;-90
2022/07/16 10:13:44;;;;;;;5.63;1.70;;;;;;;;;;6196773;23;20171;-89
2022/07/16 10:16:50;;;;;;;6.28;1.60;;;;;;;;;;6198843;23;20168;-89
2022/07/16 10:20:00;;;;;;;6.65;1.80;;;;;;;;;;6198332;23;20634;-89
2022/07/16 10:23:08;;;;;;;6.80;1.90;;;;;;;;;;6200160;23;20215;-90
2022/07/16 16:03:37;;;;;;;4.75;1.80;;;;;;;;;;6196623;22;20254;-88
2022/07/16 16:06:42;;;;;;;5.57;1.52;;;;;;;;;;6197342;23;20524;-90
2022/07/16 16:09:48;;;;;;;3.08;1.20;;;;;;;;;;6196663;23;20216;-90
2022/07/16 16:12:54;;;;;;;2.45;1.33;;;;;;;;;;6198462;23;20164;-90
2022/07/16 16:15:59;;;;;;;4.00;1.20;;;;;;;;;;6195922;23;20156;-90
2022/07/16 16:19:06;;;;;;;3.78;1.38;;;;;;;;;;6196016;23;20186;-91
2022/07/16 16:22:11;;;;;;;2.47;1.10;;;;;;;;;;6198622;23;20267;-90
2022/07/16 16:25:17;;;;;;;3.08;1.40;;;;;;;;;;6194804;23;20190;-91
2022/07/16 16:28:22;;;;;;;2.38;1.10;;;;;;;;;;6196408;23;20176;-90
2022/07/16 16:31:28;;;;;;;3.22;1.15;;;;;;;;;;6193693;23;20168;-88
2022/07/16 16:34:35;;;;;;;2.33;1.25;;;;;;;;;;6194856;23;20187;-89
2022/07/16 16:37:40;;;;;;;8.88;1.90;;;;;;;;;;6197201;23;20624;-88
2022/07/16 16:40:45;;;;;;;3.72;1.30;;;;;;;;;;6197500;23;20171;-91
2022/07/16 16:43:51;;;;;;;3.75;1.10;;;;;;;;;;6197038;23;20434;-89
2022/07/16 16:47:11;;;;;;;3.50;1.40;;;;;;;;;;6197382;23;20237;-90
2022/07/16 16:50:18;;;;;;;4.88;1.42;;;;;;;;;;6195351;23;20176;-88
2022/07/16 16:53:23;;;;;;;3.53;1.52;;;;;;;;;;6199998;23;20185;-90
2022/07/16 16:56:28;;;;;;;2.50;1.33;;;;;;;;;;6196940;23;20177;-89
2022/07/16 16:59:33;;;;;;;4.22;1.85;;;;;;;;;;6197609;23;20225;-89
2022/07/16 17:02:39;;;;;;;2.85;1.50;;;;;;;;;;6197736;23;20509;-88
2022/07/16 17:09:06;;;;;;;1.30;1.00;;;;;;;;;;6198110;23;20241;-88
2022/07/16 17:12:12;;;;;;;3.88;1.35;;;;;;;;;;6198568;23;20250;-89
2022/07/16 17:15:18;;;;;;;4.13;1.40;;;;;;;;;;6198968;23;20167;-90
2022/07/16 17:18:24;;;;;;;4.28;1.30;;;;;;;;;;6196906;23;20187;-89
2022/07/16 17:21:31;;;;;;;4.03;1.20;;;;;;;;;;6200074;23;20168;-88
2022/07/16 17:24:36;;;;;;;2.10;1.50;;;;;;;;;;6196807;23;20172;-90
2022/07/16 17:27:41;;;;;;;3.85;1.35;;;;;;;;;;6196581;23;20324;-89
2022/07/16 17:30:47;;;;;;;3.55;1.25;;;;;;;;;;6200020;23;20201;-88
2022/07/16 17:33:52;;;;;;;4.18;1.58;;;;;;;;;;6196843;23;20175;-88
2022/07/16 17:36:58;;;;;;;12.05;5.32;;;;;;;;;;6197152;23;20168;-90
2022/07/16 17:40:04;;;;;;;2.97;1.30;;;;;;;;;;6197782;23;20223;-88
2022/07/16 17:43:10;;;;;;;3.50;1.42;;;;;;;;;;6199616;23;20196;-88
2022/07/16 17:46:31;;;;;;;6.28;1.75;;;;;;;;;;6197070;23;20230;-89
2022/07/16 17:49:52;;;;;;;4.97;1.48;;;;;;;;;;6198571;23;20172;-89
2022/07/16 17:52:59;;;;;;;4.60;2.13;;;;;;;;;;6195316;23;20188;-90
2022/07/16 17:56:05;;;;;;;3.30;1.65;;;;;;;;;;6198848;23;20267;-90
2022/07/16 17:59:10;;;;;;;3.45;1.30;;;;;;;;;;6198304;23;20172;-88
2022/07/16 18:02:17;;;;;;;5.95;2.20;;;;;;;;;;6197484;23;20176;-88
2022/07/16 18:05:22;;;;;;;4.50;1.27;;;;;;;;;;6198643;23;20195;-88
2022/07/16 18:08:32;;;;;;;5.28;1.42;;;;;;;;;;6196947;23;20184;-86
2022/07/16 18:11:37;;;;;;;3.38;1.38;;;;;;;;;;6198097;23;20168;-90
2022/07/16 18:14:43;;;;;;;3.08;1.40;;;;;;;;;;6194683;23;20167;-90
2022/07/16 18:17:48;;;;;;;11.73;1.85;;;;;;;;;;6197868;23;20179;-92
2022/07/16 18:20:54;;;;;;;3.10;1.45;;;;;;;;;;6197625;23;20164;-89
2022/07/16 18:24:01;;;;;;;3.75;1.98;;;;;;;;;;6194684;23;20238;-88
2022/07/16 18:27:08;;;;;;;2.95;1.35;;;;;;;;;;6200792;23;20203;-91
2022/07/16 18:30:14;;;;;;;4.88;1.70;;;;;;;;;;6196898;23;20215;-90
2022/07/16 18:33:20;;;;;;;5.25;2.33;;;;;;;;;;6196165;23;20180;-90
2022/07/16 18:39:46;;;;;;;2.50;1.60;;;;;;;;;;6197564;23;20230;-90
2022/07/16 18:42:51;;;;;;;2.40;1.65;;;;;;;;;;6198618;23;20160;-89
2022/07/16 18:45:58;;;;;;;5.07;2.30;;;;;;;;;;6196201;23;20195;-88
2022/07/16 18:49:03;;;;;;;4.07;1.80;;;;;;;;;;6198309;23;20176;-89
2022/07/16 18:52:08;;;;;;;4.82;2.15;;;;;;;;;;6197999;23;20183;-89
2022/07/16 18:55:19;;;;;;;3.72;1.80;;;;;;;;;;6196808;23;20176;-90
2022/07/16 18:58:24;;;;;;;4.10;1.58;;;;;;;;;;6197831;23;20232;-90
2022/07/16 19:01:30;;;;;;;3.58;1.80;;;;;;;;;;6195723;23;20172;-89
2022/07/16 19:04:36;;;;;;;2.45;1.63;;;;;;;;;;6196348;23;20198;-88
2022/07/16 19:07:42;;;;;;;3.38;1.52;;;;;;;;;;6196201;23;20184;-91
2022/07/16 19:10:49;;;;;;;3.50;1.75;;;;;;;;;;6197717;23;20233;-89
2022/07/16 19:14:00;;;;;;;3.15;1.63;;;;;;;;;;6196370;23;20175;-90
2022/07/16 19:17:05;;;;;;;3.20;1.77;;;;;;;;;;6196714;23;20169;-90
2022/07/16 19:20:11;;;;;;;7.03;1.77;;;;;;;;;;6197543;23;20655;-89
2022/07/16 19:23:16;;;;;;;5.95;1.58;;;;;;;;;;6197779;23;20191;-89
2022/07/16 19:26:23;;;;;;;3.28;1.45;;;;;;;;;;6195938;23;20198;-91
2022/07/16 19:29:29;;;;;;;6.53;2.28;;;;;;;;;;6193725;23;20478;-88
2022/07/16 19:32:34;;;;;;;4.63;2.28;;;;;;;;;;6195510;23;20168;-92
2022/07/16 19:35:39;;;;;;;6.28;2.28;;;;;;;;;;6194919;23;20167;-89
2022/07/16 19:38:44;;;;;;;5.00;2.40;;;;;;;;;;6197838;23;20199;-90
2022/07/16 19:41:51;;;;;;;6.43;2.83;;;;;;;;;;6195626;23;20171;-90
2022/07/16 19:44:57;;;;;;;5.47;2.17;;;;;;;;;;6195752;23;20211;-88
2022/07/16 19:48:02;;;;;;;6.03;2.30;;;;;;;;;;6194941;23;20168;-88
2022/07/16 19:51:11;;;;;;;10.27;2.10;;;;;;;;;;6194780;23;20172;-90
2022/07/16 19:54:16;;;;;;;9.27;3.20;;;;;;;;;;6196987;23;20193;-89
2022/07/16 20:00:46;;;;;;;5.75;2.05;;;;;;;;;;6198374;23;20172;-89
2022/07/16 20:03:52;;;;;;;4.60;2.22;;;;;;;;;;6196016;23;20199;-88
2022/07/16 20:06:57;;;;;;;3.88;2.22;;;;;;;;;;6196214;23;20195;-89
2022/07/16 20:10:02;;;;;;;7.45;2.40;;;;;;;;;;6196775;23;20171;-89
2022/07/16 20:13:09;;;;;;;4.43;1.80;;;;;;;;;;6198257;23;20255;-88
2022/07/16 20:16:15;;;;;;;3.45;2.00;;;;;;;;;;6198940;23;20244;-87
2022/07/16 20:19:20;;;;;;;4.72;2.38;;;;;;;;;;6198268;23;20168;-89
2022/07/16 20:22:26;;;;;;;5.65;1.95;;;;;;;;;;6199084;23;20160;-89
2022/07/16 20:25:32;;;;;;;6.45;2.47;;;;;;;;;;6198860;23;20168;-88
2022/07/16 20:28:38;;;;;;;5.20;2.03;;;;;;;;;;6198904;23;20199;-89
2022/07/16 20:31:44;;;;;;;9.90;2.67;;;;;;;;;;6197644;23;20216;-87
2022/07/16 20:34:49;;;;;;;5.90;2.10;;;;;;;;;;6199294;23;20187;-90
2022/07/16 20:37:56;;;;;;;8.95;2.00;;;;;;;;;;6201928;23;20203;-89
2022/07/16 20:41:02;;;;;;;7.97;2.13;;;;;;;;;;6200687;23;20179;-88
2022/07/16 20:44:09;;;;;;;4.60;2.50;;;;;;;;;;6201222;23;20159;-90
2022/07/16 20:47:15;;;;;;;5.07;2.50;;;;;;;;;;6200500;23;20199;-89
2022/07/16 20:50:21;;;;;;;8.38;2.42;;;;;;;;;;6200226;23;20237;-88
2022/07/16 20:53:27;;;;;;;5.15;2.20;;;;;;;;;;6201758;23;20242;-89
2022/07/16 20:56:34;;;;;;;5.15;2.25;;;;;;;;;;6199857;23;20171;-91
2022/07/16 20:59:41;;;;;;;4.05;2.33;;;;;;;;;;6198972;23;20171;-89
2022/07/16 21:02:46;;;;;;;8.18;2.95;;;;;;;;;;6199514;23;20179;-89
2022/07/16 21:05:52;;;;;;;9.05;3.13;;;;;;;;;;6199085;23;20245;-90
2022/07/16 21:08:58;;;;;;;5.35;2.67;;;;;;;;;;6198448;23;20176;-89
2022/07/16 21:12:03;;;;;;;5.40;2.90;;;;;;;;;;6198599;23;20168;-87
2022/07/16 21:15:12;;;;;;;5.60;2.63;;;;;;;;;;6199413;23;20195;-91
2022/07/16 21:18:17;;;;;;;5.57;2.65;;;;;;;;;;6197726;23;20233;-90
2022/07/16 21:21:22;;;;;;;8.82;3.15;;;;;;;;;;6197473;23;20171;-90
2022/07/16 21:24:30;;;;;;;8.10;2.47;;;;;;;;;;6196776;23;20176;-88
2022/07/16 21:27:36;;;;;;;5.97;2.60;;;;;;;;;;6197564;23;20526;-88
2022/07/16 21:30:43;;;;;;;6.90;2.75;;;;;;;;;;6200004;23;20483;-88
2022/07/16 21:33:54;;;;;;;6.18;2.72;;;;;;;;;;6198613;23;20191;-89
2022/07/16 21:37:00;;;;;;;5.68;3.38;;;;;;;;;;6199798;23;20164;-89
2022/07/16 21:40:05;;;;;;;7.35;2.60;;;;;;;;;;6198637;23;20202;-87
2022/07/16 21:43:10;;;;;;;6.47;2.78;;;;;;;;;;6199094;23;20229;-88
2022/07/16 21:46:18;;;;;;;6.78;3.28;;;;;;;;;;6198526;23;20196;-88
2022/07/16 21:49:23;;;;;;;6.97;3.28;;;;;;;;;;6201437;23;20175;-88
2022/07/16 21:52:28;;;;;;;7.32;2.95;;;;;;;;;;6201081;23;20171;-91
2022/07/16 21:55:33;;;;;;;5.50;2.80;;;;;;;;;;6200479;23;20172;-88
2022/07/16 21:58:38;;;;;;;7.80;2.85;;;;;;;;;;6198634;23;20172;-89
2022/07/16 22:01:46;;;;;;;5.93;2.75;;;;;;;;;;6196225;23;20575;-89
2022/07/16 22:04:51;;;;;;;4.50;2.40;;;;;;;;;;6199210;23;20199;-91
2022/07/16 22:07:57;;;;;;;3.53;2.30;;;;;;;;;;6199263;23;20647;-91
2022/07/16 22:11:04;;;;;;;7.57;2.60;;;;;;;;;;6198749;23;20444;-90
2022/07/16 22:14:09;;;;;;;5.47;2.97;;;;;;;;;;6197145;23;20652;-90
2022/07/16 22:17:16;;;;;;;6.70;2.80;;;;;;;;;;6197034;23;20192;-89
2022/07/16 22:23:44;;;;;;;3.58;2.40;;;;;;;;;;6194214;23;20168;-88
2022/07/16 22:26:49;;;;;;;5.47;2.55;;;;;;;;;;6195875;23;20466;-87
2022/07/16 22:29:54;;;;;;;5.45;2.92;;;;;;;;;;6195387;23;20631;-86
2022/07/16 22:33:05;;;;;;;6.95;3.10;;;;;;;;;;6200577;23;20171;-89
2022/07/16 22:36:13;;;;;;;4.72;2.53;;;;;;;;;;6194019;23;20168;-88
2022/07/16 22:39:17;;;;;;;4.63;2.63;;;;;;;;;;6195309;23;20171;-89
2022/07/16 22:42:23;;;;;;;7.68;2.83;;;;;;;;;;6202468;23;20154;-89
2022/07/16 22:45:33;;;;;;;10.07;3.10;;;;;;;;;;6193313;23;20175;-90
2022/07/16 22:48:40;;;;;;;6.18;2.80;;;;;;;;;;6195404;23;20164;-88
2022/07/16 22:51:47;;;;;;;4.85;2.63;;;;;;;;;;6194970;23;20748;-88
2022/07/16 22:54:52;;;;;;;6.53;2.97;;;;;;;;;;6195680;23;20171;-89
2022/07/16 22:57:57;;;;;;;6.10;2.75;;;;;;;;;;6194590;23;20168;-89
2022/07/16 23:01:03;;;;;;;5.80;2.72;;;;;;;;;;6194833;23;20176;-89
2022/07/16 23:04:09;;;;;;;8.82;2.60;;;;;;;;;;6197954;23;20179;-89
2022/07/16 23:07:14;;;;;;;3.85;2.45;;;;;;;;;;6196540;23;20192;-88
2022/07/16 23:10:21;;;;;;;4.18;2.50;;;;;;;;;;6195905;23;20275;-89
2022/07/16 23:13:26;;;;;;;5.28;2.70;;;;;;;;;;6195630;23;20186;-89
2022/07/16 23:16:31;;;;;;;6.47;2.97;;;;;;;;;;6195488;23;20219;-88
2022/07/16 23:19:38;;;;;;;3.17;2.55;;;;;;;;;;6193640;23;20171;-90
2022/07/16 23:22:46;;;;;;;7.80;2.65;;;;;;;;;;6191541;23;20250;-89
2022/07/16 23:25:51;;;;;;;4.78;2.65;;;;;;;;;;6190598;23;20319;-90
2022/07/16 23:28:56;;;;;;;5.53;2.60;;;;;;;;;;6190975;23;20528;-89
2022/07/16 23:32:02;;;;;;;7.22;2.45;;;;;;;;;;6194348;23;20207;-89
2022/07/16 23:35:09;;;;;;;5.18;2.55;;;;;;;;;;6193850;23;20242;-90
2022/07/16 23:38:14;;;;;;;7.00;2.75;;;;;;;;;;6194022;23;20214;-89
2022/07/16 23:41:19;;;;;;;5.90;2.80;;;;;;;;;;6195927;23;20643;-89
2022/07/16 23:44:24;;;;;;;5.45;2.90;;;;;;;;;;6196161;23;20192;-88
2022/07/16 23:47:32;;;;;;;5.70;2.85;;;;;;;;;;6196756;23;20183;-89
2022/07/16 23:50:38;;;;;;;7.45;3.03;;;;;;;;;;6195247;23;20250;-90
2022/07/16 23:53:43;;;;;;;6.75;2.95;;;;;;;;;;6195991;23;20172;-90
2022/07/16 23:56:48;;;;;;;5.32;3.10;;;;;;;;;;6196034;23;20167;-89
2022/07/16 23:59:54;;;;;;;6.25;2.80;;;;;;;;;;6195700;23;20242;-88
